sensor_id;sensor_type;location;lat;lon;timestamp;temperature;humidity
44487;DHT22;30191;50.908;6.962;2023-02-28T00:00:46;5.00;99.90
44487;DHT22;30191;50.908;6.962;2023-02-28T00:03:11;5.00;99.90
44487;DHT22;30191;50.908;6.962;2023-02-28T00:05:37;4.90;99.90
44487;DHT22;30191;50.908;6.962;2023-02-28T00:08:03;4.90;99.90
44487;DHT22;30191;50.908;6.962;2023-02-28T00:10:29;4.90;99.90
44487;DHT22;30191;50.908;6.962;2023-02-28T00:12:56;4.90;99.90
44487;DHT22;30191;50.908;6.962;2023-02-28T00:15:24;4.80;99.90
44487;DHT22;30191;50.908;6.962;2023-02-28T00:17:49;4.80;99.90
44487;DHT22;30191;50.908;6.962;2023-02-28T00:20:15;4.80;99.90
44487;DHT22;30191;50.908;6.962;2023-02-28T00:22:45;4.80;99.90
44487;DHT22;30191;50.908;6.962;2023-02-28T00:25:11;4.80;99.90
44487;DHT22;30191;50.908;6.962;2023-02-28T00:27:38;4.70;99.90
44487;DHT22;30191;50.908;6.962;2023-02-28T00:30:04;4.70;99.90
44487;DHT22;30191;50.908;6.962;2023-02-28T00:32:30;4.70;99.90
44487;DHT22;30191;50.908;6.962;2023-02-28T00:34:56;4.60;99.90
44487;DHT22;30191;50.908;6.962;2023-02-28T00:37:22;4.50;99.90
44487;DHT22;30191;50.908;6.962;2023-02-28T00:39:47;4.50;99.90
44487;DHT22;30191;50.908;6.962;2023-02-28T00:42:13;4.50;99.90
44487;DHT22;30191;50.908;6.962;2023-02-28T00:44:38;4.50;99.90
44487;DHT22;30191;50.908;6.962;2023-02-28T00:47:04;4.30;99.90
44487;DHT22;30191;50.908;6.962;2023-02-28T00:49:29;4.20;99.90
44487;DHT22;30191;50.908;6.962;2023-02-28T00:51:55;4.20;99.90
44487;DHT22;30191;50.908;6.962;2023-02-28T00:54:21;4.10;99.90
44487;DHT22;30191;50.908;6.962;2023-02-28T00:56:47;4.20;99.90
44487;DHT22;30191;50.908;6.962;2023-02-28T00:59:14;4.30;99.90
44487;DHT22;30191;50.908;6.962;2023-02-28T01:01:40;4.40;99.90
44487;DHT22;30191;50.908;6.962;2023-02-28T01:04:05;4.40;99.90
44487;DHT22;30191;50.908;6.962;2023-02-28T01:06:31;4.40;99.90
44487;DHT22;30191;50.908;6.962;2023-02-28T01:08:57;4.40;99.90
44487;DHT22;30191;50.908;6.962;2023-02-28T01:11:23;4.50;99.90
44487;DHT22;30191;50.908;6.962;2023-02-28T01:13:49;4.40;99.90
44487;DHT22;30191;50.908;6.962;2023-02-28T01:16:15;4.40;99.90
44487;DHT22;30191;50.908;6.962;2023-02-28T01:18:40;4.40;99.90
44487;DHT22;30191;50.908;6.962;2023-02-28T01:21:07;4.40;99.90
44487;DHT22;30191;50.908;6.962;2023-02-28T01:23:33;4.40;99.90
44487;DHT22;30191;50.908;6.962;2023-02-28T01:28:31;4.40;99.90
44487;DHT22;30191;50.908;6.962;2023-02-28T01:30:57;4.30;99.90
44487;DHT22;30191;50.908;6.962;2023-02-28T01:33:22;4.30;99.90
44487;DHT22;30191;50.908;6.962;2023-02-28T01:35:48;4.30;99.90
44487;DHT22;30191;50.908;6.962;2023-02-28T01:38:13;4.30;99.90
44487;DHT22;30191;50.908;6.962;2023-02-28T01:40:39;4.30;99.90
44487;DHT22;30191;50.908;6.962;2023-02-28T01:43:09;4.30;99.90
44487;DHT22;30191;50.908;6.962;2023-02-28T01:45:35;4.30;99.90
44487;DHT22;30191;50.908;6.962;2023-02-28T01:48:02;4.30;99.90
44487;DHT22;30191;50.908;6.962;2023-02-28T01:50:29;4.30;99.90
44487;DHT22;30191;50.908;6.962;2023-02-28T01:52:57;4.30;99.90
44487;DHT22;30191;50.908;6.962;2023-02-28T01:55:25;4.30;99.90
44487;DHT22;30191;50.908;6.962;2023-02-28T01:57:56;4.30;99.90
44487;DHT22;30191;50.908;6.962;2023-02-28T02:00:23;4.20;99.90
44487;DHT22;30191;50.908;6.962;2023-02-28T02:02:51;4.20;99.90
44487;DHT22;30191;50.908;6.962;2023-02-28T02:05:21;4.10;99.90
44487;DHT22;30191;50.908;6.962;2023-02-28T02:07:48;4.20;99.90
44487;DHT22;30191;50.908;6.962;2023-02-28T02:10:24;4.10;99.90
44487;DHT22;30191;50.908;6.962;2023-02-28T02:12:54;4.10;99.90
44487;DHT22;30191;50.908;6.962;2023-02-28T02:17:52;4.10;99.90
44487;DHT22;30191;50.908;6.962;2023-02-28T02:20:38;4.00;99.90
44487;DHT22;30191;50.908;6.962;2023-02-28T02:28:45;4.10;99.90
44487;DHT22;30191;50.908;6.962;2023-02-28T02:41:46;4.00;99.90
44487;DHT22;30191;50.908;6.962;2023-02-28T02:46:59;4.00;99.90
44487;DHT22;30191;50.908;6.962;2023-02-28T02:49:30;4.00;99.90
44487;DHT22;30191;50.908;6.962;2023-02-28T02:51:57;4.00;99.90
44487;DHT22;30191;50.908;6.962;2023-02-28T02:54:24;4.00;99.90
44487;DHT22;30191;50.908;6.962;2023-02-28T02:56:53;3.90;99.90
44487;DHT22;30191;50.908;6.962;2023-02-28T02:59:21;3.90;99.90
44487;DHT22;30191;50.908;6.962;2023-02-28T03:01:50;3.90;99.90
44487;DHT22;30191;50.908;6.962;2023-02-28T03:04:18;3.90;99.90
44487;DHT22;30191;50.908;6.962;2023-02-28T03:06:44;3.90;99.90
44487;DHT22;30191;50.908;6.962;2023-02-28T03:09:10;3.90;99.90
44487;DHT22;30191;50.908;6.962;2023-02-28T03:11:36;3.90;99.90
44487;DHT22;30191;50.908;6.962;2023-02-28T03:21:36;3.80;99.90
44487;DHT22;30191;50.908;6.962;2023-02-28T03:26:28;3.70;99.90
44487;DHT22;30191;50.908;6.962;2023-02-28T03:36:30;3.70;99.90
44487;DHT22;30191;50.908;6.962;2023-02-28T03:41:24;3.60;99.90
44487;DHT22;30191;50.908;6.962;2023-02-28T03:43:54;3.60;99.90
44487;DHT22;30191;50.908;6.962;2023-02-28T03:46:21;3.50;99.90
44487;DHT22;30191;50.908;6.962;2023-02-28T03:48:49;3.40;99.90
44487;DHT22;30191;50.908;6.962;2023-02-28T03:51:17;3.40;99.90
44487;DHT22;30191;50.908;6.962;2023-02-28T03:53:45;3.40;99.90
44487;DHT22;30191;50.908;6.962;2023-02-28T03:58:43;3.40;99.90
44487;DHT22;30191;50.908;6.962;2023-02-28T04:01:14;3.40;99.90
44487;DHT22;30191;50.908;6.962;2023-02-28T04:03:42;3.50;99.90
44487;DHT22;30191;50.908;6.962;2023-02-28T04:06:08;3.60;99.90
44487;DHT22;30191;50.908;6.962;2023-02-28T04:08:38;3.60;99.90
44487;DHT22;30191;50.908;6.962;2023-02-28T04:11:05;3.50;99.90
44487;DHT22;30191;50.908;6.962;2023-02-28T04:13:31;3.50;99.90
44487;DHT22;30191;50.908;6.962;2023-02-28T04:15:57;3.40;99.90
44487;DHT22;30191;50.908;6.962;2023-02-28T04:18:23;3.40;99.90
44487;DHT22;30191;50.908;6.962;2023-02-28T04:20:48;3.40;99.90
44487;DHT22;30191;50.908;6.962;2023-02-28T04:23:14;3.50;99.90
44487;DHT22;30191;50.908;6.962;2023-02-28T04:25:40;3.50;99.90
44487;DHT22;30191;50.908;6.962;2023-02-28T04:28:06;3.40;99.90
44487;DHT22;30191;50.908;6.962;2023-02-28T04:30:32;3.40;99.90
44487;DHT22;30191;50.908;6.962;2023-02-28T04:32:58;3.50;99.90
44487;DHT22;30191;50.908;6.962;2023-02-28T04:35:23;3.40;99.90
44487;DHT22;30191;50.908;6.962;2023-02-28T04:37:49;3.50;99.90
44487;DHT22;30191;50.908;6.962;2023-02-28T04:40:15;3.50;99.90
44487;DHT22;30191;50.908;6.962;2023-02-28T04:42:40;3.50;99.90
44487;DHT22;30191;50.908;6.962;2023-02-28T04:45:06;3.50;99.90
44487;DHT22;30191;50.908;6.962;2023-02-28T04:47:32;3.50;99.90
44487;DHT22;30191;50.908;6.962;2023-02-28T04:49:57;3.60;99.90
44487;DHT22;30191;50.908;6.962;2023-02-28T04:52:23;3.50;99.90
44487;DHT22;30191;50.908;6.962;2023-02-28T04:54:49;3.50;99.90
44487;DHT22;30191;50.908;6.962;2023-02-28T04:57:14;3.50;99.90
44487;DHT22;30191;50.908;6.962;2023-02-28T04:59:40;3.60;99.90
44487;DHT22;30191;50.908;6.962;2023-02-28T05:02:06;3.50;99.90
44487;DHT22;30191;50.908;6.962;2023-02-28T05:04:33;3.50;99.90
44487;DHT22;30191;50.908;6.962;2023-02-28T05:06:59;3.50;99.90
44487;DHT22;30191;50.908;6.962;2023-02-28T05:09:25;3.60;99.90
44487;DHT22;30191;50.908;6.962;2023-02-28T05:11:51;3.60;99.90
44487;DHT22;30191;50.908;6.962;2023-02-28T05:14:16;3.60;99.90
44487;DHT22;30191;50.908;6.962;2023-02-28T05:16:42;3.50;99.90
44487;DHT22;30191;50.908;6.962;2023-02-28T05:19:08;3.50;99.90
44487;DHT22;30191;50.908;6.962;2023-02-28T05:21:34;3.50;99.90
44487;DHT22;30191;50.908;6.962;2023-02-28T05:24:04;3.50;99.90
44487;DHT22;30191;50.908;6.962;2023-02-28T05:26:30;3.40;99.90
44487;DHT22;30191;50.908;6.962;2023-02-28T05:28:56;3.40;99.90
44487;DHT22;30191;50.908;6.962;2023-02-28T05:31:22;3.30;99.90
44487;DHT22;30191;50.908;6.962;2023-02-28T05:33:47;3.30;99.90
44487;DHT22;30191;50.908;6.962;2023-02-28T05:36:13;3.40;99.90
44487;DHT22;30191;50.908;6.962;2023-02-28T05:38:38;3.40;99.90
44487;DHT22;30191;50.908;6.962;2023-02-28T05:41:05;3.30;99.90
44487;DHT22;30191;50.908;6.962;2023-02-28T05:43:30;3.40;99.90
44487;DHT22;30191;50.908;6.962;2023-02-28T05:45:56;3.30;99.90
44487;DHT22;30191;50.908;6.962;2023-02-28T05:48:21;3.30;99.90
44487;DHT22;30191;50.908;6.962;2023-02-28T05:50:47;3.30;99.90
44487;DHT22;30191;50.908;6.962;2023-02-28T05:53:13;3.30;99.90
44487;DHT22;30191;50.908;6.962;2023-02-28T05:55:38;3.30;99.90
44487;DHT22;30191;50.908;6.962;2023-02-28T05:58:06;3.40;99.90
44487;DHT22;30191;50.908;6.962;2023-02-28T06:00:31;3.40;99.90
44487;DHT22;30191;50.908;6.962;2023-02-28T06:02:57;3.40;99.90
44487;DHT22;30191;50.908;6.962;2023-02-28T06:05:26;3.40;99.90
44487;DHT22;30191;50.908;6.962;2023-02-28T06:07:53;3.40;99.90
44487;DHT22;30191;50.908;6.962;2023-02-28T06:10:18;3.40;99.90
44487;DHT22;30191;50.908;6.962;2023-02-28T06:12:45;3.40;99.90
44487;DHT22;30191;50.908;6.962;2023-02-28T06:15:14;3.40;99.90
44487;DHT22;30191;50.908;6.962;2023-02-28T06:17:43;3.50;99.90
44487;DHT22;30191;50.908;6.962;2023-02-28T06:20:09;3.40;99.90
44487;DHT22;30191;50.908;6.962;2023-02-28T06:22:36;3.40;99.90
44487;DHT22;30191;50.908;6.962;2023-02-28T06:25:02;3.40;99.90
44487;DHT22;30191;50.908;6.962;2023-02-28T06:27:28;3.40;99.90
44487;DHT22;30191;50.908;6.962;2023-02-28T06:29:54;3.40;99.90
44487;DHT22;30191;50.908;6.962;2023-02-28T06:32:21;3.40;99.90
44487;DHT22;30191;50.908;6.962;2023-02-28T06:34:46;3.30;99.90
44487;DHT22;30191;50.908;6.962;2023-02-28T06:37:12;3.30;99.90
44487;DHT22;30191;50.908;6.962;2023-02-28T06:39:38;3.30;99.90
44487;DHT22;30191;50.908;6.962;2023-02-28T06:42:04;3.30;99.90
44487;DHT22;30191;50.908;6.962;2023-02-28T06:44:30;3.30;99.90
44487;DHT22;30191;50.908;6.962;2023-02-28T06:47:01;3.30;99.90
44487;DHT22;30191;50.908;6.962;2023-02-28T06:49:29;3.30;99.90
44487;DHT22;30191;50.908;6.962;2023-02-28T06:51:54;3.30;99.90
44487;DHT22;30191;50.908;6.962;2023-02-28T06:54:20;3.30;99.90
44487;DHT22;30191;50.908;6.962;2023-02-28T06:56:46;3.30;99.90
44487;DHT22;30191;50.908;6.962;2023-02-28T06:59:12;3.30;99.90
44487;DHT22;30191;50.908;6.962;2023-02-28T07:01:38;3.30;99.90
44487;DHT22;30191;50.908;6.962;2023-02-28T07:04:04;3.30;99.90
44487;DHT22;30191;50.908;6.962;2023-02-28T07:06:30;3.30;99.90
44487;DHT22;30191;50.908;6.962;2023-02-28T07:08:56;3.30;99.90
44487;DHT22;30191;50.908;6.962;2023-02-28T07:11:23;3.30;99.90
44487;DHT22;30191;50.908;6.962;2023-02-28T07:13:54;3.30;99.90
44487;DHT22;30191;50.908;6.962;2023-02-28T07:16:19;3.30;99.90
44487;DHT22;30191;50.908;6.962;2023-02-28T07:18:45;3.40;99.90
44487;DHT22;30191;50.908;6.962;2023-02-28T07:21:10;3.40;99.90
44487;DHT22;30191;50.908;6.962;2023-02-28T07:23:37;3.40;99.90
44487;DHT22;30191;50.908;6.962;2023-02-28T07:26:06;3.40;99.90
44487;DHT22;30191;50.908;6.962;2023-02-28T07:28:32;3.50;99.90
44487;DHT22;30191;50.908;6.962;2023-02-28T07:31:02;3.40;99.90
44487;DHT22;30191;50.908;6.962;2023-02-28T07:33:28;3.50;99.90
44487;DHT22;30191;50.908;6.962;2023-02-28T07:35:59;3.50;99.90
44487;DHT22;30191;50.908;6.962;2023-02-28T07:38:25;3.50;99.80
44487;DHT22;30191;50.908;6.962;2023-02-28T07:40:50;3.50;99.90
44487;DHT22;30191;50.908;6.962;2023-02-28T07:43:16;3.50;99.90
44487;DHT22;30191;50.908;6.962;2023-02-28T07:45:41;3.50;99.90
44487;DHT22;30191;50.908;6.962;2023-02-28T07:48:07;3.60;99.90
44487;DHT22;30191;50.908;6.962;2023-02-28T07:50:35;3.60;99.90
44487;DHT22;30191;50.908;6.962;2023-02-28T07:53:00;3.70;99.90
44487;DHT22;30191;50.908;6.962;2023-02-28T07:55:26;3.70;99.70
44487;DHT22;30191;50.908;6.962;2023-02-28T07:57:52;3.70;99.20
44487;DHT22;30191;50.908;6.962;2023-02-28T08:00:17;3.70;99.30
44487;DHT22;30191;50.908;6.962;2023-02-28T08:02:43;3.80;99.20
44487;DHT22;30191;50.908;6.962;2023-02-28T08:05:09;3.70;98.90
44487;DHT22;30191;50.908;6.962;2023-02-28T08:07:34;3.80;98.60
44487;DHT22;30191;50.908;6.962;2023-02-28T08:10:00;3.90;98.70
44487;DHT22;30191;50.908;6.962;2023-02-28T08:12:25;3.90;98.50
44487;DHT22;30191;50.908;6.962;2023-02-28T08:14:51;3.90;98.30
44487;DHT22;30191;50.908;6.962;2023-02-28T08:17:16;3.90;98.10
44487;DHT22;30191;50.908;6.962;2023-02-28T08:19:44;4.00;97.80
44487;DHT22;30191;50.908;6.962;2023-02-28T08:22:10;4.00;97.50
44487;DHT22;30191;50.908;6.962;2023-02-28T08:24:36;4.00;97.90
44487;DHT22;30191;50.908;6.962;2023-02-28T08:27:01;4.00;97.10
44487;DHT22;30191;50.908;6.962;2023-02-28T08:29:27;4.00;96.80
44487;DHT22;30191;50.908;6.962;2023-02-28T08:31:52;4.10;97.20
44487;DHT22;30191;50.908;6.962;2023-02-28T08:34:18;4.10;96.40
44487;DHT22;30191;50.908;6.962;2023-02-28T08:36:43;4.10;96.20
44487;DHT22;30191;50.908;6.962;2023-02-28T08:39:12;4.10;96.40
44487;DHT22;30191;50.908;6.962;2023-02-28T08:41:38;4.20;96.50
44487;DHT22;30191;50.908;6.962;2023-02-28T08:44:03;4.30;96.10
44487;DHT22;30191;50.908;6.962;2023-02-28T08:46:29;4.30;96.00
44487;DHT22;30191;50.908;6.962;2023-02-28T08:48:55;4.30;95.90
44487;DHT22;30191;50.908;6.962;2023-02-28T08:51:24;4.40;96.00
44487;DHT22;30191;50.908;6.962;2023-02-28T08:53:53;4.40;95.80
44487;DHT22;30191;50.908;6.962;2023-02-28T08:56:19;4.50;94.70
44487;DHT22;30191;50.908;6.962;2023-02-28T08:58:45;4.50;95.10
44487;DHT22;30191;50.908;6.962;2023-02-28T09:01:12;4.50;94.60
44487;DHT22;30191;50.908;6.962;2023-02-28T09:03:38;4.60;95.10
44487;DHT22;30191;50.908;6.962;2023-02-28T09:06:04;4.60;94.10
44487;DHT22;30191;50.908;6.962;2023-02-28T09:08:30;4.50;94.20
44487;DHT22;30191;50.908;6.962;2023-02-28T09:10:56;4.60;94.00
44487;DHT22;30191;50.908;6.962;2023-02-28T09:13:23;4.70;94.30
44487;DHT22;30191;50.908;6.962;2023-02-28T09:15:49;4.70;93.30
44487;DHT22;30191;50.908;6.962;2023-02-28T09:18:14;4.70;92.80
44487;DHT22;30191;50.908;6.962;2023-02-28T09:20:40;4.70;92.60
44487;DHT22;30191;50.908;6.962;2023-02-28T09:23:07;4.70;93.00
44487;DHT22;30191;50.908;6.962;2023-02-28T09:25:33;4.70;93.10
44487;DHT22;30191;50.908;6.962;2023-02-28T09:27:59;4.70;93.10
44487;DHT22;30191;50.908;6.962;2023-02-28T09:30:24;4.80;93.20
44487;DHT22;30191;50.908;6.962;2023-02-28T09:32:50;4.80;93.20
44487;DHT22;30191;50.908;6.962;2023-02-28T09:35:19;4.80;92.30
44487;DHT22;30191;50.908;6.962;2023-02-28T09:37:46;4.80;92.50
44487;DHT22;30191;50.908;6.962;2023-02-28T09:40:12;4.90;92.60
44487;DHT22;30191;50.908;6.962;2023-02-28T09:42:39;4.90;91.70
44487;DHT22;30191;50.908;6.962;2023-02-28T09:45:06;4.90;91.60
44487;DHT22;30191;50.908;6.962;2023-02-28T09:47:40;4.90;91.60
44487;DHT22;30191;50.908;6.962;2023-02-28T09:52:39;5.00;91.90
44487;DHT22;30191;50.908;6.962;2023-02-28T09:55:22;5.00;91.80
44487;DHT22;30191;50.908;6.962;2023-02-28T09:57:48;5.10;92.00
44487;DHT22;30191;50.908;6.962;2023-02-28T10:05:20;5.10;91.60
44487;DHT22;30191;50.908;6.962;2023-02-28T10:10:55;5.20;91.70
44487;DHT22;30191;50.908;6.962;2023-02-28T10:13:04;5.20;91.60
44487;DHT22;30191;50.908;6.962;2023-02-28T10:15:31;5.20;91.20
44487;DHT22;30191;50.908;6.962;2023-02-28T10:17:59;5.20;91.50
44487;DHT22;30191;50.908;6.962;2023-02-28T10:20:26;5.30;91.40
44487;DHT22;30191;50.908;6.962;2023-02-28T10:25:21;5.40;91.60
44487;DHT22;30191;50.908;6.962;2023-02-28T10:27:47;5.40;91.20
44487;DHT22;30191;50.908;6.962;2023-02-28T10:30:13;5.40;91.40
44487;DHT22;30191;50.908;6.962;2023-02-28T10:32:44;5.40;91.00
44487;DHT22;30191;50.908;6.962;2023-02-28T10:35:20;5.50;90.90
44487;DHT22;30191;50.908;6.962;2023-02-28T10:37:47;5.50;91.30
44487;DHT22;30191;50.908;6.962;2023-02-28T10:45:26;5.60;91.00
44487;DHT22;30191;50.908;6.962;2023-02-28T10:47:56;5.60;90.40
44487;DHT22;30191;50.908;6.962;2023-02-28T10:50:26;5.60;91.00
44487;DHT22;30191;50.908;6.962;2023-02-28T10:52:52;5.70;90.90
44487;DHT22;30191;50.908;6.962;2023-02-28T10:55:22;5.70;91.40
44487;DHT22;30191;50.908;6.962;2023-02-28T10:57:49;5.80;90.80
44487;DHT22;30191;50.908;6.962;2023-02-28T11:00:16;5.80;90.00
44487;DHT22;30191;50.908;6.962;2023-02-28T11:02:42;5.90;91.00
44487;DHT22;30191;50.908;6.962;2023-02-28T11:05:25;5.90;90.80
44487;DHT22;30191;50.908;6.962;2023-02-28T11:07:55;6.00;91.10
44487;DHT22;30191;50.908;6.962;2023-02-28T11:10:22;6.00;90.70
44487;DHT22;30191;50.908;6.962;2023-02-28T11:12:49;6.10;90.00
44487;DHT22;30191;50.908;6.962;2023-02-28T11:17:53;6.10;90.20
44487;DHT22;30191;50.908;6.962;2023-02-28T11:20:23;6.10;90.40
44487;DHT22;30191;50.908;6.962;2023-02-28T11:22:49;6.20;90.20
44487;DHT22;30191;50.908;6.962;2023-02-28T11:25:25;6.20;90.10
44487;DHT22;30191;50.908;6.962;2023-02-28T11:27:52;6.20;90.10
44487;DHT22;30191;50.908;6.962;2023-02-28T11:30:34;6.30;90.20
44487;DHT22;30191;50.908;6.962;2023-02-28T11:33:00;6.30;88.70
44487;DHT22;30191;50.908;6.962;2023-02-28T11:35:28;6.30;89.40
44487;DHT22;30191;50.908;6.962;2023-02-28T11:37:55;6.40;89.00
44487;DHT22;30191;50.908;6.962;2023-02-28T11:40:24;6.50;90.00
44487;DHT22;30191;50.908;6.962;2023-02-28T11:56:46;7.00;85.80
44487;DHT22;30191;50.908;6.962;2023-02-28T12:01:43;7.00;85.90
44487;DHT22;30191;50.908;6.962;2023-02-28T12:04:14;7.00;85.70
44487;DHT22;30191;50.908;6.962;2023-02-28T12:07:25;7.10;85.00
44487;DHT22;30191;50.908;6.962;2023-02-28T12:12:26;7.10;85.00
44487;DHT22;30191;50.908;6.962;2023-02-28T12:25:24;7.50;85.00
44487;DHT22;30191;50.908;6.962;2023-02-28T12:27:56;7.50;83.40
44487;DHT22;30191;50.908;6.962;2023-02-28T12:30:23;7.60;83.50
44487;DHT22;30191;50.908;6.962;2023-02-28T12:32:54;7.60;82.30
44487;DHT22;30191;50.908;6.962;2023-02-28T12:35:25;7.70;82.70
44487;DHT22;30191;50.908;6.962;2023-02-28T12:40:21;7.80;80.80
44487;DHT22;30191;50.908;6.962;2023-02-28T12:42:58;7.80;80.80
44487;DHT22;30191;50.908;6.962;2023-02-28T12:45:26;7.90;80.50
44487;DHT22;30191;50.908;6.962;2023-02-28T12:47:57;8.00;80.50
44487;DHT22;30191;50.908;6.962;2023-02-28T12:50:23;8.20;80.90
44487;DHT22;30191;50.908;6.962;2023-02-28T12:52:54;8.30;80.80
44487;DHT22;30191;50.908;6.962;2023-02-28T12:55:23;8.40;80.90
44487;DHT22;30191;50.908;6.962;2023-02-28T12:57:58;8.50;80.80
44487;DHT22;30191;50.908;6.962;2023-02-28T13:00:28;8.70;80.30
44487;DHT22;30191;50.908;6.962;2023-02-28T13:05:29;8.70;79.20
44487;DHT22;30191;50.908;6.962;2023-02-28T13:10:22;8.90;80.30
44487;DHT22;30191;50.908;6.962;2023-02-28T13:12:52;9.10;80.80
44487;DHT22;30191;50.908;6.962;2023-02-28T13:15:19;9.20;78.80
44487;DHT22;30191;50.908;6.962;2023-02-28T13:17:48;9.30;79.30
44487;DHT22;30191;50.908;6.962;2023-02-28T13:20:19;9.40;78.70
44487;DHT22;30191;50.908;6.962;2023-02-28T13:22:46;9.40;77.50
44487;DHT22;30191;50.908;6.962;2023-02-28T13:25:49;9.30;77.40
44487;DHT22;30191;50.908;6.962;2023-02-28T13:28:10;9.30;78.50
44487;DHT22;30191;50.908;6.962;2023-02-28T13:33:25;9.60;77.90
44487;DHT22;30191;50.908;6.962;2023-02-28T13:38:32;9.80;76.00
44487;DHT22;30191;50.908;6.962;2023-02-28T13:41:31;9.90;75.20
44487;DHT22;30191;50.908;6.962;2023-02-28T13:59:34;22.30;47.00
44487;DHT22;30191;50.908;6.962;2023-02-28T14:04:44;22.50;44.50
44487;DHT22;30191;50.908;6.962;2023-02-28T14:07:16;23.20;43.80
44487;DHT22;30191;50.908;6.962;2023-02-28T14:09:45;24.10;42.70
44487;DHT22;30191;50.908;6.962;2023-02-28T14:14:57;24.40;41.60
44487;DHT22;30191;50.908;6.962;2023-02-28T14:17:22;25.30;41.60
44487;DHT22;30191;50.908;6.962;2023-02-28T14:19:49;25.90;41.50
44487;DHT22;30191;50.908;6.962;2023-02-28T14:27:35;26.00;40.40
44487;DHT22;30191;50.908;6.962;2023-02-28T14:37:51;26.10;38.80
44487;DHT22;30191;50.908;6.962;2023-02-28T14:40:28;25.70;39.20
44487;DHT22;30191;50.908;6.962;2023-02-28T14:42:56;24.90;39.20
44487;DHT22;30191;50.908;6.962;2023-02-28T14:45:22;25.30;39.80
44487;DHT22;30191;50.908;6.962;2023-02-28T14:47:49;24.40;39.70
44487;DHT22;30191;50.908;6.962;2023-02-28T14:50:22;24.80;40.20
44487;DHT22;30191;50.908;6.962;2023-02-28T14:52:49;24.80;39.90
44487;DHT22;30191;50.908;6.962;2023-02-28T14:55:18;24.80;39.70
44487;DHT22;30191;50.908;6.962;2023-02-28T14:57:51;24.40;40.20
44487;DHT22;30191;50.908;6.962;2023-02-28T15:00:35;24.10;40.20
44487;DHT22;30191;50.908;6.962;2023-02-28T15:03:17;23.90;40.30
44487;DHT22;30191;50.908;6.962;2023-02-28T15:05:47;23.00;40.30
44487;DHT22;30191;50.908;6.962;2023-02-28T15:08:16;21.90;40.80
44487;DHT22;30191;50.908;6.962;2023-02-28T15:10:42;20.50;41.60
44487;DHT22;30191;50.908;6.962;2023-02-28T15:13:11;19.70;42.70
44487;DHT22;30191;50.908;6.962;2023-02-28T15:18:03;18.00;43.60
44487;DHT22;30191;50.908;6.962;2023-02-28T15:20:29;17.00;44.30
44487;DHT22;30191;50.908;6.962;2023-02-28T15:22:55;16.50;45.20
44487;DHT22;30191;50.908;6.962;2023-02-28T15:25:21;15.90;45.80
44487;DHT22;30191;50.908;6.962;2023-02-28T15:27:49;15.50;46.40
44487;DHT22;30191;50.908;6.962;2023-02-28T15:30:25;15.10;46.20
44487;DHT22;30191;50.908;6.962;2023-02-28T15:33:05;14.80;46.80
44487;DHT22;30191;50.908;6.962;2023-02-28T15:35:33;14.40;47.50
44487;DHT22;30191;50.908;6.962;2023-02-28T15:40:38;13.80;47.80
44487;DHT22;30191;50.908;6.962;2023-02-28T15:47:57;13.20;49.10
44487;DHT22;30191;50.908;6.962;2023-02-28T15:50:23;13.10;49.00
44487;DHT22;30191;50.908;6.962;2023-02-28T15:52:49;12.90;49.10
44487;DHT22;30191;50.908;6.962;2023-02-28T15:55:19;12.70;49.40
44487;DHT22;30191;50.908;6.962;2023-02-28T15:57:47;12.60;50.20
44487;DHT22;30191;50.908;6.962;2023-02-28T16:00:18;12.50;50.10
44487;DHT22;30191;50.908;6.962;2023-02-28T16:02:45;12.50;50.80
44487;DHT22;30191;50.908;6.962;2023-02-28T16:10:03;12.20;51.30
44487;DHT22;30191;50.908;6.962;2023-02-28T16:12:30;12.10;51.20
44487;DHT22;30191;50.908;6.962;2023-02-28T16:15:00;12.10;51.10
44487;DHT22;30191;50.908;6.962;2023-02-28T16:17:29;12.00;51.00
44487;DHT22;30191;50.908;6.962;2023-02-28T16:19:55;11.80;50.90
44487;DHT22;30191;50.908;6.962;2023-02-28T16:22:20;11.70;51.20
44487;DHT22;30191;50.908;6.962;2023-02-28T16:24:46;11.60;51.40
44487;DHT22;30191;50.908;6.962;2023-02-28T16:27:31;11.50;51.60
44487;DHT22;30191;50.908;6.962;2023-02-28T16:29:58;11.30;51.80
44487;DHT22;30191;50.908;6.962;2023-02-28T16:32:23;11.10;52.80
44487;DHT22;30191;50.908;6.962;2023-02-28T16:34:49;11.10;53.00
44487;DHT22;30191;50.908;6.962;2023-02-28T16:37:16;10.90;53.30
44487;DHT22;30191;50.908;6.962;2023-02-28T16:39:42;10.80;53.80
44487;DHT22;30191;50.908;6.962;2023-02-28T16:42:15;10.80;54.00
44487;DHT22;30191;50.908;6.962;2023-02-28T16:44:41;10.70;53.90
44487;DHT22;30191;50.908;6.962;2023-02-28T16:47:08;10.60;54.00
44487;DHT22;30191;50.908;6.962;2023-02-28T16:49:35;10.50;54.30
44487;DHT22;30191;50.908;6.962;2023-02-28T16:52:01;10.40;54.90
44487;DHT22;30191;50.908;6.962;2023-02-28T16:54:26;10.30;55.40
44487;DHT22;30191;50.908;6.962;2023-02-28T16:56:52;10.10;55.50
44487;DHT22;30191;50.908;6.962;2023-02-28T16:59:23;10.00;55.60
44487;DHT22;30191;50.908;6.962;2023-02-28T17:01:50;9.90;55.80
44487;DHT22;30191;50.908;6.962;2023-02-28T17:04:16;9.80;56.40
44487;DHT22;30191;50.908;6.962;2023-02-28T17:06:41;9.70;56.40
44487;DHT22;30191;50.908;6.962;2023-02-28T17:09:15;9.60;56.30
44487;DHT22;30191;50.908;6.962;2023-02-28T17:11:41;9.50;56.90
44487;DHT22;30191;50.908;6.962;2023-02-28T17:14:06;9.40;57.20
44487;DHT22;30191;50.908;6.962;2023-02-28T17:16:32;9.30;57.50
44487;DHT22;30191;50.908;6.962;2023-02-28T17:19:03;9.20;58.20
44487;DHT22;30191;50.908;6.962;2023-02-28T17:21:29;9.10;58.70
44487;DHT22;30191;50.908;6.962;2023-02-28T17:23:55;9.10;58.90
44487;DHT22;30191;50.908;6.962;2023-02-28T17:26:21;9.00;59.20
44487;DHT22;30191;50.908;6.962;2023-02-28T17:28:49;8.90;59.40
44487;DHT22;30191;50.908;6.962;2023-02-28T17:31:16;8.80;59.80
44487;DHT22;30191;50.908;6.962;2023-02-28T17:33:41;8.80;60.60
44487;DHT22;30191;50.908;6.962;2023-02-28T17:36:10;8.80;60.50
44487;DHT22;30191;50.908;6.962;2023-02-28T17:38:38;8.80;60.80
44487;DHT22;30191;50.908;6.962;2023-02-28T17:41:03;8.70;61.20
44487;DHT22;30191;50.908;6.962;2023-02-28T17:43:29;8.60;61.60
44487;DHT22;30191;50.908;6.962;2023-02-28T17:45:55;8.60;61.90
44487;DHT22;30191;50.908;6.962;2023-02-28T17:48:21;8.60;62.20
44487;DHT22;30191;50.908;6.962;2023-02-28T17:50:46;8.50;62.40
44487;DHT22;30191;50.908;6.962;2023-02-28T17:53:12;8.50;62.80
44487;DHT22;30191;50.908;6.962;2023-02-28T17:55:37;8.40;63.00
44487;DHT22;30191;50.908;6.962;2023-02-28T17:58:04;8.40;63.40
44487;DHT22;30191;50.908;6.962;2023-02-28T18:00:29;8.30;63.40
44487;DHT22;30191;50.908;6.962;2023-02-28T18:02:57;8.30;64.20
44487;DHT22;30191;50.908;6.962;2023-02-28T18:05:23;8.30;64.80
44487;DHT22;30191;50.908;6.962;2023-02-28T18:07:48;8.30;65.30
44487;DHT22;30191;50.908;6.962;2023-02-28T18:10:18;8.30;65.70
44487;DHT22;30191;50.908;6.962;2023-02-28T18:12:47;8.20;66.10
44487;DHT22;30191;50.908;6.962;2023-02-28T18:15:13;8.20;66.80
44487;DHT22;30191;50.908;6.962;2023-02-28T18:17:39;8.20;67.40
44487;DHT22;30191;50.908;6.962;2023-02-28T18:20:05;8.20;67.30
44487;DHT22;30191;50.908;6.962;2023-02-28T18:22:31;8.20;67.90
44487;DHT22;30191;50.908;6.962;2023-02-28T18:24:57;8.10;68.30